createdAt,value
2023-04-14T08:31:35.638Z,0.30
2023-04-14T08:36:37.172Z,0.50
2023-04-14T08:41:38.631Z,0.30
2023-04-14T08:46:40.036Z,0.38
2023-04-14T08:51:44.670Z,0.38
2023-04-14T08:56:46.089Z,0.20
2023-04-14T09:01:47.509Z,0.20
2023-04-14T09:06:48.932Z,0.30
2023-04-14T09:11:50.551Z,0.20
2023-04-14T09:16:53.773Z,0.20
2023-04-14T09:21:55.900Z,0.25
2023-04-14T09:26:57.338Z,0.20
2023-04-14T09:31:59.019Z,0.20
2023-04-14T09:37:07.315Z,0.20
2023-04-14T09:42:08.741Z,0.20
2023-04-14T09:47:10.443Z,0.10
2023-04-14T09:52:11.825Z,0.20
2023-04-14T09:57:24.485Z,0.10
2023-04-14T10:02:26.947Z,0.28
2023-04-14T10:07:28.776Z,0.20
2023-04-14T10:12:30.320Z,0.20
2023-04-14T10:17:33.888Z,0.20
2023-04-14T10:22:36.125Z,0.20
2023-04-14T10:27:37.672Z,0.20
2023-04-14T10:32:40.441Z,0.20
2023-04-14T10:37:51.950Z,0.30
2023-04-14T10:42:54.239Z,0.20
2023-04-14T10:47:55.760Z,0.20
2023-04-14T10:52:58.704Z,0.13
2023-04-14T10:58:05.101Z,0.10
2023-04-14T11:03:16.867Z,0.10
2023-04-14T11:08:33.827Z,0.17
2023-04-14T11:13:35.374Z,0.20
2023-04-14T11:18:45.520Z,0.20
2023-04-14T11:23:47.968Z,0.20
2023-04-14T11:28:49.419Z,0.10
2023-04-14T11:33:50.847Z,0.17
2023-04-14T11:38:52.230Z,0.10
2023-04-14T11:43:54.246Z,0.10
2023-04-14T11:48:56.414Z,0.10
2023-04-14T11:53:59.567Z,0.10
2023-04-14T11:59:01.850Z,0.10
2023-04-14T12:04:03.499Z,0.00
2023-04-14T12:09:08.325Z,0.10
2023-04-14T12:14:09.721Z,0.10
2023-04-14T12:19:11.223Z,0.10
2023-04-14T12:24:12.602Z,0.10
2023-04-14T12:29:14.123Z,0.10
2023-04-14T12:34:17.763Z,0.10
2023-04-14T12:39:20.355Z,0.15
2023-04-14T12:44:24.198Z,0.10
2023-04-14T12:49:32.876Z,0.20
2023-04-14T12:54:47.426Z,0.20
2023-04-14T12:59:48.927Z,0.20
2023-04-14T13:04:50.390Z,0.20
2023-04-14T13:09:52.427Z,0.20
2023-04-14T13:14:53.868Z,0.10
2023-04-14T13:19:55.268Z,0.13
2023-04-14T13:24:59.735Z,0.10
2023-04-14T13:30:01.516Z,0.13
2023-04-14T13:35:02.992Z,0.17
2023-04-14T13:40:04.694Z,0.10
2023-04-14T13:45:06.961Z,0.15
2023-04-14T13:50:08.650Z,0.10
2023-04-14T13:55:10.036Z,0.13
2023-04-14T14:00:11.758Z,0.10
2023-04-14T14:05:14.520Z,0.10
2023-04-14T14:10:15.893Z,0.00
2023-04-14T14:15:17.341Z,0.10
2023-04-14T14:20:18.915Z,0.10
2023-04-14T14:25:21.439Z,0.13
2023-04-14T14:30:23.022Z,0.10
2023-04-14T14:35:24.449Z,0.10
2023-04-14T14:40:25.923Z,0.05
2023-04-14T14:45:31.093Z,0.10
2023-04-14T14:55:35.078Z,0.10
2023-04-14T15:00:37.850Z,0.10
2023-04-14T15:05:39.265Z,0.13
2023-04-14T15:10:40.777Z,0.10
2023-04-14T15:15:42.472Z,0.20
2023-04-14T15:20:43.869Z,0.20
2023-04-14T15:25:45.373Z,0.10
2023-04-14T15:30:46.776Z,0.20
2023-04-14T15:35:48.213Z,0.10
2023-04-14T15:40:49.599Z,0.20
2023-04-14T15:45:51.261Z,0.10
2023-04-14T15:50:52.654Z,0.10
2023-04-14T15:55:54.324Z,0.10
2023-04-14T16:00:56.060Z,0.10
2023-04-14T16:06:06.551Z,0.10
2023-04-14T16:11:13.066Z,0.10
2023-04-14T16:16:15.048Z,0.20
2023-04-14T16:21:16.666Z,0.20
2023-04-14T16:26:18.103Z,0.30
2023-04-14T16:31:19.554Z,0.20
2023-04-14T16:36:23.910Z,0.25
2023-04-14T16:41:25.847Z,0.20
2023-04-14T16:46:27.252Z,0.20
2023-04-14T16:51:28.687Z,0.30
2023-04-14T16:56:30.479Z,0.20
2023-04-14T17:01:32.653Z,0.20
2023-04-14T17:06:34.089Z,0.22
2023-04-14T17:11:35.449Z,0.20
2023-04-14T17:16:37.871Z,0.20
2023-04-14T17:21:39.477Z,0.15
2023-04-14T17:26:41.055Z,0.10
2023-04-14T17:31:42.562Z,0.10
2023-04-14T17:36:44.101Z,0.10
2023-04-14T17:41:45.808Z,0.17
2023-04-14T17:46:47.210Z,0.10
2023-04-14T17:51:48.611Z,0.10
2023-04-14T17:56:50.237Z,0.10
2023-04-14T18:01:51.636Z,0.08
2023-04-14T18:06:53.525Z,0.10
2023-04-14T18:11:54.899Z,0.00
2023-04-14T18:16:57.049Z,0.10
2023-04-14T18:21:58.499Z,0.10
2023-04-14T18:26:59.866Z,0.10
2023-04-14T18:32:01.256Z,0.10
2023-04-14T18:37:03.906Z,0.08
2023-04-14T18:42:05.384Z,0.10
2023-04-14T18:47:06.770Z,0.10
2023-04-14T18:52:08.137Z,0.10
2023-04-14T18:57:09.887Z,0.08
2023-04-14T19:02:13.628Z,0.10
2023-04-14T19:07:15.326Z,0.10
2023-04-14T19:17:23.016Z,0.10
2023-04-14T19:22:24.798Z,0.10
2023-04-14T19:27:26.281Z,0.10
2023-04-14T19:32:27.678Z,0.10
2023-04-14T19:37:29.104Z,0.10
2023-04-14T19:42:30.491Z,0.10
2023-04-14T19:47:31.906Z,0.03
2023-04-14T19:52:33.441Z,0.10
2023-04-14T19:57:34.820Z,0.00
2023-04-14T20:02:36.328Z,0.10
2023-04-14T20:07:37.818Z,0.20
2023-04-14T20:12:40.226Z,0.10
2023-04-14T20:17:41.644Z,0.10
2023-04-14T20:22:43.056Z,0.10
2023-04-14T20:27:44.985Z,0.10
2023-04-14T20:32:46.381Z,0.00
2023-04-14T20:37:47.873Z,0.10
2023-04-14T20:42:49.251Z,0.05
2023-04-14T20:47:50.732Z,0.10
2023-04-14T20:52:52.171Z,0.10
2023-04-14T20:57:53.553Z,0.10
2023-04-14T21:02:54.989Z,0.10
2023-04-14T21:07:56.572Z,0.00
2023-04-14T21:15:30.428Z,0.00
2023-04-14T21:18:20.091Z,0.08
2023-04-14T21:23:21.859Z,0.00
2023-04-14T21:28:23.263Z,0.10
2023-04-14T21:33:25.147Z,0.20
2023-04-14T21:38:27.836Z,0.00
2023-04-14T21:43:29.240Z,0.08
2023-04-14T21:48:30.871Z,0.10
2023-04-14T21:53:32.273Z,0.10
2023-04-14T21:58:33.712Z,0.05
2023-04-14T22:03:37.549Z,0.00
2023-04-14T22:08:39.438Z,0.00
2023-04-14T22:13:41.052Z,0.00
2023-04-14T22:18:42.490Z,0.00
2023-04-14T22:23:43.881Z,0.00
2023-04-14T22:28:45.288Z,0.00
2023-04-14T22:33:46.862Z,0.10
2023-04-14T22:38:48.444Z,0.00
2023-04-14T22:43:49.863Z,0.00
2023-04-14T22:48:51.434Z,0.00
2023-04-14T22:53:52.802Z,0.00
2023-04-14T22:58:57.486Z,0.00
2023-04-14T23:03:59.191Z,0.10
2023-04-14T23:09:00.734Z,0.00
2023-04-14T23:14:02.668Z,0.00
2023-04-14T23:19:04.300Z,0.00
2023-04-14T23:24:06.525Z,0.00
2023-04-14T23:29:08.041Z,0.00
2023-04-14T23:34:10.713Z,0.00
2023-04-14T23:39:12.541Z,0.00
2023-04-14T23:44:13.950Z,0.00
2023-04-14T23:49:23.721Z,0.10
2023-04-14T23:54:26.161Z,0.30
2023-04-14T23:59:28.221Z,0.00
